createdAt,value
2018-02-20T00:00:45.877Z,19.97
2018-02-20T00:03:13.354Z,18.70
2018-02-20T00:05:40.874Z,19.57
2018-02-20T00:08:08.370Z,19.90
2018-02-20T00:10:35.862Z,19.87
2018-02-20T00:13:03.395Z,19.17
2018-02-20T00:15:30.875Z,19.30
2018-02-20T00:17:59.182Z,19.00
2018-02-20T00:20:26.663Z,19.40
2018-02-20T00:22:54.146Z,19.17
2018-02-20T00:25:22.442Z,17.80
2018-02-20T00:27:49.909Z,19.33
2018-02-20T00:30:18.157Z,19.37
2018-02-20T00:32:45.651Z,18.83
2018-02-20T00:35:13.142Z,19.80
2018-02-20T00:37:41.446Z,18.93
2018-02-20T00:40:08.952Z,19.53
2018-02-20T00:42:36.430Z,18.33
2018-02-20T00:45:03.922Z,18.23
2018-02-20T00:47:32.173Z,19.30
2018-02-20T00:49:59.650Z,20.70
2018-02-20T00:52:27.158Z,19.33
2018-02-20T00:54:54.647Z,19.70
2018-02-20T00:57:22.875Z,19.23
2018-02-20T00:59:50.415Z,19.37
2018-02-20T01:02:17.893Z,19.80
2018-02-20T01:04:45.385Z,19.33
2018-02-20T01:07:12.878Z,19.40
2018-02-20T01:09:40.366Z,18.83
2018-02-20T01:12:07.882Z,19.13
2018-02-20T01:14:35.399Z,18.10
2018-02-20T01:17:02.893Z,19.03
2018-02-20T01:19:31.155Z,19.57
2018-02-20T01:21:58.642Z,19.30
2018-02-20T01:24:26.970Z,20.40
2018-02-20T01:26:54.464Z,19.17
2018-02-20T01:29:22.764Z,20.40
2018-02-20T01:31:50.263Z,19.00
2018-02-20T01:34:17.732Z,18.93
2018-02-20T01:36:45.231Z,19.43
2018-02-20T01:39:12.705Z,18.70
2018-02-20T01:41:40.199Z,19.17
2018-02-20T01:44:08.440Z,19.97
2018-02-20T01:46:36.689Z,18.60
2018-02-20T01:49:04.219Z,18.63
2018-02-20T01:51:31.717Z,18.60
2018-02-20T01:53:59.227Z,19.60
2018-02-20T01:56:26.711Z,18.47
2018-02-20T01:58:54.971Z,19.30
2018-02-20T02:01:22.469Z,18.20
2018-02-20T02:03:50.746Z,19.47
2018-02-20T02:06:19.018Z,18.93
2018-02-20T02:08:46.487Z,19.40
2018-02-20T02:11:13.989Z,19.93
2018-02-20T02:13:42.257Z,18.60
2018-02-20T02:16:09.755Z,17.40
2018-02-20T02:18:37.239Z,18.97
2018-02-20T02:21:04.795Z,19.50
2018-02-20T02:23:32.281Z,20.10
2018-02-20T02:25:59.754Z,20.07
2018-02-20T02:28:27.280Z,17.50
2018-02-20T02:30:54.769Z,19.10
2018-02-20T02:33:23.038Z,19.40
2018-02-20T02:35:50.518Z,18.33
2018-02-20T02:38:18.011Z,18.53
2018-02-20T02:40:45.503Z,18.50
2018-02-20T02:43:13.003Z,18.10
2018-02-20T02:45:40.483Z,18.43
2018-02-20T02:48:08.742Z,19.40
2018-02-20T02:50:36.218Z,18.97
2018-02-20T02:53:03.731Z,18.00
2018-02-20T02:55:31.978Z,18.40
2018-02-20T02:57:59.464Z,18.30
2018-02-20T03:00:26.940Z,18.43
2018-02-20T03:02:54.424Z,18.50
2018-02-20T03:05:21.931Z,18.43
2018-02-20T03:07:49.430Z,19.20
2018-02-20T03:10:16.904Z,18.43
2018-02-20T03:12:44.458Z,18.23
2018-02-20T03:15:11.944Z,16.67
2018-02-20T03:17:39.480Z,18.83
2018-02-20T03:20:06.990Z,18.03
2018-02-20T03:22:34.492Z,18.77
2018-02-20T03:25:02.770Z,17.20
2018-02-20T03:27:30.306Z,18.13
2018-02-20T03:29:57.791Z,17.87
2018-02-20T03:32:25.298Z,18.03
2018-02-20T03:34:53.542Z,18.03
2018-02-20T03:37:21.026Z,18.50
2018-02-20T03:39:48.531Z,17.20
2018-02-20T03:42:16.795Z,18.00
2018-02-20T03:44:44.286Z,18.13
2018-02-20T03:47:12.559Z,18.03
2018-02-20T03:49:40.056Z,18.70
2018-02-20T03:52:08.292Z,17.33
2018-02-20T03:54:35.806Z,17.10
2018-02-20T03:57:04.053Z,17.20
2018-02-20T03:59:31.581Z,17.10
2018-02-20T04:01:59.093Z,17.37
2018-02-20T04:04:26.589Z,16.33
2018-02-20T04:06:54.112Z,16.53
2018-02-20T04:09:21.617Z,15.90
2018-02-20T04:11:49.091Z,16.67
2018-02-20T04:14:16.574Z,16.80
2018-02-20T04:16:44.055Z,16.07
2018-02-20T04:19:12.310Z,16.40
2018-02-20T04:21:39.778Z,16.87
2018-02-20T04:24:07.287Z,16.30
2018-02-20T04:26:34.815Z,16.60
2018-02-20T04:29:02.300Z,16.80
2018-02-20T04:31:29.783Z,17.03
2018-02-20T04:33:57.270Z,17.20
2018-02-20T04:36:25.563Z,15.80
2018-02-20T04:38:53.919Z,16.67
2018-02-20T04:41:21.425Z,16.50
2018-02-20T04:43:49.685Z,15.93
2018-02-20T04:46:17.201Z,16.53
2018-02-20T04:48:44.724Z,16.80
2018-02-20T04:51:12.225Z,16.60
2018-02-20T04:53:40.530Z,15.97
2018-02-20T04:56:08.018Z,16.97
2018-02-20T04:58:35.513Z,15.70
2018-02-20T05:01:03.022Z,15.70
2018-02-20T05:03:31.304Z,16.27
2018-02-20T05:05:59.598Z,16.00
2018-02-20T05:08:27.851Z,16.60
2018-02-20T05:10:55.363Z,17.57
2018-02-20T05:13:23.644Z,15.90
2018-02-20T05:15:51.899Z,16.43
2018-02-20T05:18:19.373Z,16.30
2018-02-20T05:20:46.883Z,16.77
2018-02-20T05:23:14.391Z,17.53
2018-02-20T05:25:41.873Z,15.77
2018-02-20T05:28:09.351Z,14.80
2018-02-20T05:30:36.867Z,16.23
2018-02-20T05:33:05.106Z,16.93
2018-02-20T05:35:32.606Z,16.30
2018-02-20T05:38:00.854Z,15.37
2018-02-20T05:40:28.383Z,15.50
2018-02-20T05:42:56.662Z,15.30
2018-02-20T05:45:24.163Z,15.50
2018-02-20T05:47:51.651Z,16.00
2018-02-20T05:50:19.127Z,14.83
2018-02-20T05:52:46.627Z,14.80
2018-02-20T05:55:14.127Z,15.53
2018-02-20T05:57:42.377Z,14.90
2018-02-20T06:00:09.861Z,15.03
2018-02-20T06:02:37.341Z,15.80
2018-02-20T06:05:05.618Z,15.13
2018-02-20T06:07:33.891Z,14.97
2018-02-20T06:10:01.404Z,15.03
2018-02-20T06:12:29.721Z,15.30
2018-02-20T06:14:57.194Z,14.93
2018-02-20T06:17:24.701Z,15.50
2018-02-20T06:19:52.933Z,15.20
2018-02-20T06:22:20.453Z,15.10
2018-02-20T06:24:47.950Z,15.20
2018-02-20T06:27:16.236Z,14.33
2018-02-20T06:29:44.505Z,15.80
2018-02-20T06:32:11.996Z,14.80
2018-02-20T06:34:40.254Z,15.70
2018-02-20T06:37:07.769Z,15.87
2018-02-20T06:39:35.274Z,15.30
2018-02-20T06:42:02.759Z,14.63
2018-02-20T06:44:30.271Z,14.80
2018-02-20T06:46:58.531Z,14.30
2018-02-20T06:49:26.047Z,14.47
2018-02-20T06:51:53.551Z,15.03
2018-02-20T06:54:21.090Z,15.37
2018-02-20T06:56:48.586Z,14.63
2018-02-20T06:59:16.101Z,15.37
2018-02-20T07:01:43.592Z,14.60
2018-02-20T07:04:11.862Z,14.13
2018-02-20T07:06:39.379Z,14.00
2018-02-20T07:09:06.879Z,13.83
2018-02-20T07:11:34.417Z,14.30
2018-02-20T07:14:01.943Z,14.43
2018-02-20T07:16:29.451Z,14.30
2018-02-20T07:18:56.986Z,15.03
2018-02-20T07:21:24.491Z,14.43
2018-02-20T07:23:51.967Z,14.63
2018-02-20T07:26:19.492Z,14.00
2018-02-20T07:28:47.028Z,15.47
2018-02-20T07:31:15.283Z,15.03
2018-02-20T07:33:43.554Z,14.67
2018-02-20T07:36:11.058Z,14.67
2018-02-20T07:38:38.567Z,14.23
2018-02-20T07:41:06.090Z,14.30
2018-02-20T07:43:33.587Z,14.77
2018-02-20T07:46:01.103Z,15.53
2018-02-20T07:48:29.362Z,14.10
2018-02-20T07:50:56.913Z,13.83
2018-02-20T07:53:24.390Z,14.37
2018-02-20T07:55:51.891Z,14.27
2018-02-20T07:58:19.420Z,13.53
2018-02-20T08:00:47.621Z,14.57
2018-02-20T08:03:15.126Z,13.23
2018-02-20T08:05:42.614Z,14.13
2018-02-20T08:08:10.877Z,13.63
2018-02-20T08:10:38.405Z,14.57
2018-02-20T08:13:05.937Z,13.50
2018-02-20T08:15:34.215Z,13.63
2018-02-20T08:18:01.718Z,14.10
2018-02-20T08:20:29.203Z,14.50
2018-02-20T08:22:56.730Z,12.60
2018-02-20T08:25:24.215Z,12.80
2018-02-20T08:27:52.491Z,12.87
2018-02-20T08:30:20.762Z,12.57
2018-02-20T08:32:49.083Z,13.20
2018-02-20T08:35:17.323Z,12.83
2018-02-20T08:37:44.887Z,12.60
2018-02-20T08:40:12.378Z,11.13
2018-02-20T08:42:39.890Z,12.17
2018-02-20T08:45:08.157Z,12.10
2018-02-20T08:47:35.671Z,12.43
2018-02-20T08:50:03.909Z,11.73
2018-02-20T08:52:31.401Z,12.23
2018-02-20T08:54:59.646Z,11.70
2018-02-20T08:57:27.150Z,11.90
2018-02-20T08:59:55.427Z,11.83
2018-02-20T09:02:22.949Z,11.27
2018-02-20T09:04:50.448Z,11.83
2018-02-20T09:07:17.947Z,11.40
2018-02-20T09:09:45.444Z,11.13
2018-02-20T09:12:13.706Z,11.43
2018-02-20T09:14:41.293Z,11.67
2018-02-20T09:17:09.534Z,10.80
2018-02-20T09:19:37.018Z,11.30
2018-02-20T09:22:04.531Z,10.57
2018-02-20T09:24:32.038Z,10.10
2018-02-20T09:26:59.507Z,10.03
2018-02-20T09:29:26.994Z,10.90
2018-02-20T09:31:54.486Z,10.50
2018-02-20T09:34:22.005Z,10.87
2018-02-20T09:36:49.504Z,10.40
2018-02-20T09:39:16.994Z,9.60
2018-02-20T09:41:44.555Z,10.70
2018-02-20T09:44:12.044Z,10.30
2018-02-20T09:46:39.531Z,9.90
2018-02-20T09:49:07.780Z,10.00
2018-02-20T09:51:35.264Z,9.80
2018-02-20T09:54:02.817Z,10.67
2018-02-20T09:56:30.310Z,10.13
2018-02-20T09:58:57.770Z,8.93
2018-02-20T10:01:25.267Z,9.90
2018-02-20T10:03:53.559Z,9.33
2018-02-20T10:06:21.830Z,9.77
2018-02-20T10:08:49.323Z,9.73
2018-02-20T10:11:17.599Z,9.47
2018-02-20T10:13:45.838Z,8.60
2018-02-20T10:16:13.319Z,8.60
2018-02-20T10:18:40.831Z,8.73
2018-02-20T10:21:09.106Z,8.87
2018-02-20T10:23:36.634Z,9.40
2018-02-20T10:26:04.122Z,8.40
2018-02-20T10:28:31.594Z,8.60
2018-02-20T10:30:59.111Z,8.00
2018-02-20T10:33:27.355Z,8.27
2018-02-20T10:35:54.825Z,8.70
2018-02-20T10:38:22.298Z,8.77
2018-02-20T10:40:49.785Z,8.23
2018-02-20T10:43:17.280Z,8.67
2018-02-20T10:45:45.538Z,8.20
2018-02-20T10:48:13.038Z,8.50
2018-02-20T10:50:41.273Z,8.70
2018-02-20T10:53:08.779Z,8.47
2018-02-20T10:55:36.303Z,8.17
2018-02-20T10:58:03.814Z,8.40
2018-02-20T11:00:31.302Z,8.73
2018-02-20T11:02:59.542Z,7.50
2018-02-20T11:05:27.034Z,7.57
2018-02-20T11:07:54.526Z,8.13
2018-02-20T11:10:22.794Z,7.73
2018-02-20T11:12:50.308Z,7.60
2018-02-20T11:15:17.792Z,7.90
2018-02-20T11:17:46.104Z,7.40
2018-02-20T11:20:13.620Z,7.50
2018-02-20T11:22:41.934Z,7.53
2018-02-20T11:25:09.406Z,8.17
2018-02-20T11:27:36.888Z,7.57
2018-02-20T11:30:04.374Z,7.83
2018-02-20T11:32:31.858Z,6.83
2018-02-20T11:34:59.374Z,7.90
2018-02-20T11:37:27.608Z,7.40
2018-02-20T11:39:55.880Z,7.27
2018-02-20T11:42:23.376Z,7.40
2018-02-20T11:44:50.862Z,7.53
2018-02-20T11:47:18.361Z,7.60
2018-02-20T11:49:46.617Z,7.10
2018-02-20T11:52:14.126Z,7.60
2018-02-20T11:54:41.659Z,8.23
2018-02-20T11:57:09.186Z,7.23
2018-02-20T11:59:36.711Z,7.53
2018-02-20T12:02:04.210Z,7.30
2018-02-20T12:04:31.706Z,7.73
2018-02-20T12:06:59.195Z,7.50
2018-02-20T12:09:26.698Z,7.77
2018-02-20T12:11:54.944Z,6.73
2018-02-20T12:14:22.454Z,7.43
2018-02-20T12:16:49.947Z,7.60
2018-02-20T12:19:18.228Z,7.20
2018-02-20T12:21:46.507Z,6.80
2018-02-20T12:24:14.016Z,7.50
2018-02-20T12:26:41.551Z,6.67
2018-02-20T12:29:09.805Z,6.50
2018-02-20T12:31:37.290Z,7.10
2018-02-20T12:34:05.570Z,6.80
2018-02-20T12:36:33.061Z,7.03
2018-02-20T12:39:00.535Z,6.93
2018-02-20T12:41:28.147Z,7.17
2018-02-20T12:43:55.629Z,6.63
2018-02-20T12:46:23.115Z,6.47
2018-02-20T12:48:50.592Z,7.30
2018-02-20T12:51:18.073Z,7.13
2018-02-20T12:53:47.050Z,6.83
2018-02-20T12:56:14.546Z,6.50
2018-02-20T12:58:42.084Z,7.23
2018-02-20T13:01:09.570Z,7.20
2018-02-20T13:03:37.077Z,6.87
2018-02-20T13:06:05.339Z,6.83
2018-02-20T13:08:32.867Z,6.50
2018-02-20T13:11:00.376Z,6.27
2018-02-20T13:13:27.923Z,7.37
2018-02-20T13:15:55.399Z,6.47
2018-02-20T13:18:22.865Z,7.20
2018-02-20T13:20:50.385Z,6.70
2018-02-20T13:23:17.910Z,7.47
2018-02-20T13:25:45.400Z,6.93
2018-02-20T13:28:12.874Z,7.50
2018-02-20T13:30:41.130Z,7.70
2018-02-20T13:33:08.630Z,7.20
2018-02-20T13:35:36.159Z,8.03
2018-02-20T13:38:03.627Z,8.30
2018-02-20T13:40:31.178Z,8.00
2018-02-20T13:42:59.432Z,8.60
2018-02-20T13:45:26.901Z,8.50
2018-02-20T13:47:54.381Z,7.90
2018-02-20T13:50:21.846Z,8.13
2018-02-20T13:52:49.358Z,7.83
2018-02-20T13:55:16.922Z,7.40
2018-02-20T13:57:45.187Z,7.50
2018-02-20T14:00:12.674Z,7.60
2018-02-20T14:02:40.219Z,7.83
2018-02-20T14:05:07.722Z,6.90
2018-02-20T14:07:36.016Z,7.27
2018-02-20T14:10:04.266Z,7.70
2018-02-20T14:12:31.782Z,6.93
2018-02-20T14:14:59.279Z,7.20
2018-02-20T14:17:26.773Z,8.23
2018-02-20T14:19:54.319Z,7.60
2018-02-20T14:22:21.824Z,8.10
2018-02-20T14:24:49.314Z,7.50
2018-02-20T14:27:17.563Z,7.60
2018-02-20T14:29:45.074Z,7.30
2018-02-20T14:32:13.332Z,7.57
2018-02-20T14:34:40.811Z,8.43
2018-02-20T14:37:08.303Z,7.87
2018-02-20T14:39:35.803Z,7.53
2018-02-20T14:42:03.366Z,7.27
2018-02-20T14:44:30.867Z,7.47
2018-02-20T14:46:59.146Z,8.17
2018-02-20T14:49:26.633Z,8.17
2018-02-20T14:51:54.107Z,7.40
2018-02-20T14:54:21.586Z,7.90
2018-02-20T14:56:49.098Z,7.60
2018-02-20T14:59:17.377Z,7.70
2018-02-20T15:01:45.623Z,7.63
2018-02-20T15:04:13.107Z,7.83
2018-02-20T15:06:40.571Z,7.70
2018-02-20T15:09:08.833Z,8.13
2018-02-20T15:11:36.315Z,8.30
2018-02-20T15:14:03.787Z,8.10
2018-02-20T15:16:31.311Z,8.20
2018-02-20T15:18:59.574Z,8.00
2018-02-20T15:21:27.075Z,7.90
2018-02-20T15:23:55.320Z,8.10
2018-02-20T15:26:22.788Z,8.53
2018-02-20T15:28:50.276Z,8.37
2018-02-20T15:31:17.785Z,8.80
2018-02-20T15:33:45.265Z,7.97
2018-02-20T15:36:12.753Z,8.60
2018-02-20T15:38:40.280Z,7.97
2018-02-20T15:41:08.551Z,8.33
2018-02-20T15:43:36.031Z,9.20
2018-02-20T15:46:04.283Z,8.70
2018-02-20T15:48:31.799Z,9.33
2018-02-20T15:51:00.041Z,8.93
2018-02-20T15:53:27.526Z,8.90
2018-02-20T15:55:55.011Z,9.07
2018-02-20T15:58:22.483Z,8.97
2018-02-20T16:00:49.972Z,9.30
2018-02-20T16:03:18.215Z,9.33
2018-02-20T16:05:45.695Z,8.77
2018-02-20T16:08:13.174Z,9.23
2018-02-20T16:10:40.702Z,9.20
2018-02-20T16:13:08.195Z,9.40
2018-02-20T16:15:51.464Z,9.60
2018-02-20T16:18:18.946Z,9.63
2018-02-20T16:20:47.201Z,9.87
2018-02-20T16:23:14.681Z,9.03
2018-02-20T16:25:42.175Z,9.10
2018-02-20T16:28:09.743Z,9.50
2018-02-20T16:30:38.015Z,9.40
2018-02-20T16:33:05.516Z,9.43
2018-02-20T16:35:33.014Z,9.50
2018-02-20T16:38:00.494Z,9.10
2018-02-20T16:40:27.983Z,9.33
2018-02-20T16:42:55.479Z,9.20
2018-02-20T16:45:22.968Z,10.20
2018-02-20T16:47:50.447Z,10.30
2018-02-20T16:50:17.933Z,9.90
2018-02-20T16:52:45.414Z,10.93
2018-02-20T16:55:12.923Z,10.30
2018-02-20T16:57:40.432Z,10.87
2018-02-20T17:00:07.943Z,10.90
2018-02-20T17:02:35.460Z,10.60
2018-02-20T17:05:02.934Z,9.90
2018-02-20T17:07:31.183Z,10.57
2018-02-20T17:09:58.654Z,11.07
2018-02-20T17:12:26.144Z,10.53
2018-02-20T17:14:54.411Z,10.10
2018-02-20T17:17:21.890Z,10.20
2018-02-20T17:19:49.378Z,10.33
2018-02-20T17:22:17.639Z,10.70
2018-02-20T17:24:45.124Z,10.70
2018-02-20T17:27:12.607Z,10.83
2018-02-20T17:29:40.879Z,9.57
2018-02-20T17:32:08.368Z,10.70
2018-02-20T17:34:36.614Z,9.63
2018-02-20T17:37:04.126Z,11.00
2018-02-20T17:39:32.354Z,11.20
2018-02-20T17:41:59.848Z,10.50
2018-02-20T17:44:28.206Z,10.33
2018-02-20T17:46:55.711Z,10.53
2018-02-20T17:49:23.217Z,9.50
2018-02-20T17:51:51.466Z,10.73
2018-02-20T17:54:18.968Z,10.53
2018-02-20T17:56:46.509Z,11.23
2018-02-20T17:59:14.015Z,10.87
2018-02-20T18:01:42.254Z,10.13
2018-02-20T18:04:09.819Z,10.60
2018-02-20T18:06:37.295Z,10.20
2018-02-20T18:09:05.570Z,10.60
2018-02-20T18:11:33.057Z,10.27
2018-02-20T18:14:00.616Z,10.63
2018-02-20T18:16:28.839Z,10.03
2018-02-20T18:18:56.349Z,10.43
2018-02-20T18:21:23.833Z,10.47
2018-02-20T18:23:51.317Z,10.77
2018-02-20T18:26:18.848Z,11.23
2018-02-20T18:28:46.317Z,11.23
2018-02-20T18:31:14.576Z,10.50
2018-02-20T18:33:42.070Z,10.70
2018-02-20T18:36:10.324Z,11.00
2018-02-20T18:38:37.822Z,11.07
2018-02-20T18:41:05.343Z,10.80
2018-02-20T18:43:32.838Z,10.70
2018-02-20T18:46:00.313Z,10.40
2018-02-20T18:48:27.801Z,10.67
2018-02-20T18:50:55.300Z,10.87
2018-02-20T18:53:22.792Z,10.47
2018-02-20T18:55:50.287Z,12.00
2018-02-20T18:58:17.785Z,10.80
2018-02-20T19:00:45.266Z,10.37
2018-02-20T19:03:13.501Z,10.83
2018-02-20T19:05:41.029Z,11.97
2018-02-20T19:08:09.279Z,10.83
2018-02-20T19:10:36.803Z,10.20
2018-02-20T19:13:04.303Z,11.00
2018-02-20T19:15:31.806Z,10.80
2018-02-20T19:17:59.315Z,10.77
2018-02-20T19:20:26.830Z,10.60
2018-02-20T19:22:54.310Z,10.83
2018-02-20T19:25:21.806Z,10.90
2018-02-20T19:27:50.047Z,10.57
2018-02-20T19:30:17.586Z,11.87
2018-02-20T19:32:45.079Z,10.87
2018-02-20T19:35:12.573Z,10.70
2018-02-20T19:37:40.049Z,10.70
2018-02-20T19:40:09.062Z,11.40
2018-02-20T19:42:36.559Z,10.97
2018-02-20T19:45:04.826Z,11.37
2018-02-20T19:47:32.352Z,10.83
2018-02-20T19:49:59.850Z,11.57
2018-02-20T19:52:27.318Z,10.70
2018-02-20T19:54:54.788Z,12.47
2018-02-20T19:57:22.274Z,11.57
2018-02-20T19:59:49.767Z,10.70
2018-02-20T20:02:18.147Z,11.80
2018-02-20T20:04:46.511Z,12.30
2018-02-20T20:07:13.996Z,10.80
2018-02-20T20:09:41.476Z,12.10
2018-02-20T20:12:08.990Z,12.70
2018-02-20T20:14:36.471Z,10.77
2018-02-20T20:17:04.032Z,11.90
2018-02-20T20:19:31.555Z,12.40
2018-02-20T20:21:59.045Z,13.90
2018-02-20T20:24:27.298Z,16.17
2018-02-20T20:26:54.823Z,19.17
2018-02-20T20:29:22.315Z,19.23
2018-02-20T20:31:49.871Z,21.67
2018-02-20T20:34:17.359Z,23.97
2018-02-20T20:36:44.866Z,25.93
2018-02-20T20:39:12.375Z,25.27
2018-02-20T20:41:39.884Z,29.27
2018-02-20T20:44:07.386Z,29.77
2018-02-20T20:46:34.880Z,29.90
2018-02-20T20:49:02.398Z,30.27
2018-02-20T20:51:29.875Z,30.63
2018-02-20T20:53:57.367Z,30.73
2018-02-20T20:56:24.856Z,30.00
2018-02-20T20:58:53.102Z,29.93
2018-02-20T21:01:20.634Z,31.60
2018-02-20T21:03:48.115Z,29.37
2018-02-20T21:06:15.632Z,28.77
2018-02-20T21:08:43.148Z,28.87
2018-02-20T21:11:10.622Z,27.00
2018-02-20T21:13:38.106Z,28.40
2018-02-20T21:16:05.600Z,26.07
2018-02-20T21:18:33.106Z,26.60
2018-02-20T21:21:01.359Z,26.50
2018-02-20T21:23:28.838Z,26.37
2018-02-20T21:25:56.334Z,26.83
2018-02-20T21:28:24.587Z,26.77
2018-02-20T21:30:52.065Z,25.50
2018-02-20T21:33:19.582Z,25.80
2018-02-20T21:35:47.886Z,24.80
2018-02-20T21:38:15.390Z,25.60
2018-02-20T21:40:42.883Z,24.33
2018-02-20T21:43:11.147Z,24.17
2018-02-20T21:45:38.626Z,22.63
2018-02-20T21:48:06.111Z,22.30
2018-02-20T21:50:33.595Z,23.13
2018-02-20T21:53:01.855Z,23.70
2018-02-20T21:55:29.326Z,23.10
2018-02-20T21:57:56.867Z,21.33
2018-02-20T22:00:24.367Z,22.40
2018-02-20T22:02:51.845Z,21.83
2018-02-20T22:05:19.332Z,21.67
2018-02-20T22:07:47.583Z,22.43
2018-02-20T22:10:15.070Z,21.20
2018-02-20T22:12:42.575Z,20.57
2018-02-20T22:15:10.102Z,20.60
2018-02-20T22:17:38.351Z,19.93
2018-02-20T22:20:05.875Z,20.63
2018-02-20T22:22:34.144Z,20.93
2018-02-20T22:25:01.626Z,20.53
2018-02-20T22:27:29.135Z,21.97
2018-02-20T22:29:56.639Z,20.40
2018-02-20T22:32:24.131Z,19.77
2018-02-20T22:34:53.154Z,19.70
2018-02-20T22:37:20.678Z,19.87
2018-02-20T22:39:48.927Z,19.30
2018-02-20T22:42:17.179Z,17.50
2018-02-20T22:44:44.671Z,18.30
2018-02-20T22:47:12.175Z,18.70
2018-02-20T22:49:39.750Z,18.80
2018-02-20T22:52:07.259Z,18.40
2018-02-20T22:54:34.746Z,17.30
2018-02-20T22:57:02.240Z,17.77
2018-02-20T22:59:30.487Z,18.10
2018-02-20T23:01:57.990Z,18.43
2018-02-20T23:04:26.293Z,17.30
2018-02-20T23:06:53.778Z,17.70
2018-02-20T23:09:21.264Z,17.60
2018-02-20T23:11:48.771Z,17.17
2018-02-20T23:14:16.266Z,16.70
2018-02-20T23:16:44.528Z,15.80
2018-02-20T23:19:12.015Z,17.23
2018-02-20T23:21:39.510Z,15.80
2018-02-20T23:24:06.991Z,15.83
2018-02-20T23:26:34.498Z,16.07
2018-02-20T23:29:01.990Z,16.10
2018-02-20T23:31:29.535Z,16.30
2018-02-20T23:33:57.026Z,15.87
2018-02-20T23:36:24.531Z,15.03
2018-02-20T23:38:52.814Z,15.67
2018-02-20T23:41:21.115Z,16.20
2018-02-20T23:43:48.619Z,15.80
2018-02-20T23:46:16.110Z,15.30
2018-02-20T23:48:43.589Z,15.73
2018-02-20T23:51:16.744Z,16.50
2018-02-20T23:53:44.985Z,16.37
2018-02-20T23:56:12.476Z,16.43
2018-02-20T23:58:40.718Z,15.90
